sensor_id;sensor_type;location;lat;lon;timestamp;P1;durP1;ratioP1;P2;durP2;ratioP2
44452;SDS011;30155;52.164;21.236;2022-08-07T00:03:26;4.72;;;2.87;;
44452;SDS011;30155;52.164;21.236;2022-08-07T00:08:20;4.37;;;3.27;;
44452;SDS011;30155;52.164;21.236;2022-08-07T00:13:20;5.92;;;2.42;;
44452;SDS011;30155;52.164;21.236;2022-08-07T00:18:12;4.33;;;2.30;;
44452;SDS011;30155;52.164;21.236;2022-08-07T00:23:08;4.50;;;2.85;;
44452;SDS011;30155;52.164;21.236;2022-08-07T00:28:01;5.45;;;2.60;;
44452;SDS011;30155;52.164;21.236;2022-08-07T00:33:05;4.55;;;2.72;;
44452;SDS011;30155;52.164;21.236;2022-08-07T00:37:58;4.80;;;2.37;;
44452;SDS011;30155;52.164;21.236;2022-08-07T00:42:59;3.42;;;2.47;;
44452;SDS011;30155;52.164;21.236;2022-08-07T00:47:51;2.52;;;2.20;;
44452;SDS011;30155;52.164;21.236;2022-08-07T00:52:43;3.52;;;2.72;;
44452;SDS011;30155;52.164;21.236;2022-08-07T00:57:36;3.62;;;2.42;;
44452;SDS011;30155;52.164;21.236;2022-08-07T01:02:29;3.50;;;2.55;;
44452;SDS011;30155;52.164;21.236;2022-08-07T01:07:21;6.65;;;2.60;;
44452;SDS011;30155;52.164;21.236;2022-08-07T01:12:14;7.12;;;2.40;;
44452;SDS011;30155;52.164;21.236;2022-08-07T01:17:21;2.87;;;2.40;;
44452;SDS011;30155;52.164;21.236;2022-08-07T01:22:16;2.42;;;2.22;;
44452;SDS011;30155;52.164;21.236;2022-08-07T01:27:14;4.53;;;2.62;;
44452;SDS011;30155;52.164;21.236;2022-08-07T01:37:25;3.92;;;2.62;;
44452;SDS011;30155;52.164;21.236;2022-08-07T01:42:20;3.45;;;2.50;;
44452;SDS011;30155;52.164;21.236;2022-08-07T01:47:13;3.40;;;2.22;;
44452;SDS011;30155;52.164;21.236;2022-08-07T01:52:06;2.62;;;2.30;;
44452;SDS011;30155;52.164;21.236;2022-08-07T01:57:08;5.80;;;2.33;;
44452;SDS011;30155;52.164;21.236;2022-08-07T02:02:06;3.40;;;2.62;;
44452;SDS011;30155;52.164;21.236;2022-08-07T02:06:58;4.10;;;2.40;;
44452;SDS011;30155;52.164;21.236;2022-08-07T02:12:08;4.42;;;2.33;;
44452;SDS011;30155;52.164;21.236;2022-08-07T02:17:11;3.95;;;2.95;;
44452;SDS011;30155;52.164;21.236;2022-08-07T02:22:15;3.40;;;2.40;;
44452;SDS011;30155;52.164;21.236;2022-08-07T02:27:25;2.10;;;1.95;;
44452;SDS011;30155;52.164;21.236;2022-08-07T02:32:19;2.05;;;1.87;;
44452;SDS011;30155;52.164;21.236;2022-08-07T02:37:16;2.98;;;2.15;;
44452;SDS011;30155;52.164;21.236;2022-08-07T02:42:31;3.23;;;2.13;;
44452;SDS011;30155;52.164;21.236;2022-08-07T02:47:13;4.08;;;2.30;;
44452;SDS011;30155;52.164;21.236;2022-08-07T02:52:10;3.50;;;2.60;;
44452;SDS011;30155;52.164;21.236;2022-08-07T03:02:50;2.08;;;1.90;;
44452;SDS011;30155;52.164;21.236;2022-08-07T03:07:51;2.55;;;1.80;;
44452;SDS011;30155;52.164;21.236;2022-08-07T03:12:44;1.98;;;1.80;;
44452;SDS011;30155;52.164;21.236;2022-08-07T03:17:39;2.42;;;2.22;;
44452;SDS011;30155;52.164;21.236;2022-08-07T03:22:34;2.60;;;2.10;;
44452;SDS011;30155;52.164;21.236;2022-08-07T03:27:48;1.85;;;1.75;;
44452;SDS011;30155;52.164;21.236;2022-08-07T03:32:42;2.85;;;2.08;;
44452;SDS011;30155;52.164;21.236;2022-08-07T03:37:39;2.20;;;2.00;;
44452;SDS011;30155;52.164;21.236;2022-08-07T03:42:49;3.77;;;2.20;;
44452;SDS011;30155;52.164;21.236;2022-08-07T03:47:36;2.67;;;2.12;;
44452;SDS011;30155;52.164;21.236;2022-08-07T03:52:36;2.90;;;2.27;;
44452;SDS011;30155;52.164;21.236;2022-08-07T03:57:31;2.55;;;2.35;;
44452;SDS011;30155;52.164;21.236;2022-08-07T04:02:26;3.65;;;2.87;;
44452;SDS011;30155;52.164;21.236;2022-08-07T04:07:21;3.70;;;3.40;;
44452;SDS011;30155;52.164;21.236;2022-08-07T04:17:41;4.12;;;3.00;;
44452;SDS011;30155;52.164;21.236;2022-08-07T04:22:51;5.35;;;3.35;;
44452;SDS011;30155;52.164;21.236;2022-08-07T04:33:12;3.00;;;2.65;;
44452;SDS011;30155;52.164;21.236;2022-08-07T04:38:07;5.12;;;3.00;;
44452;SDS011;30155;52.164;21.236;2022-08-07T04:43:02;3.22;;;2.42;;
44452;SDS011;30155;52.164;21.236;2022-08-07T04:48:03;6.55;;;3.35;;
44452;SDS011;30155;52.164;21.236;2022-08-07T04:53:07;4.03;;;2.75;;
44452;SDS011;30155;52.164;21.236;2022-08-07T04:58:13;2.95;;;2.75;;
44452;SDS011;30155;52.164;21.236;2022-08-07T05:13:57;6.40;;;4.10;;
44452;SDS011;30155;52.164;21.236;2022-08-07T05:24:03;4.78;;;3.17;;
44452;SDS011;30155;52.164;21.236;2022-08-07T05:29:39;3.42;;;3.08;;
44452;SDS011;30155;52.164;21.236;2022-08-07T05:34:42;6.75;;;3.75;;
44452;SDS011;30155;52.164;21.236;2022-08-07T05:40:11;3.55;;;2.92;;
44452;SDS011;30155;52.164;21.236;2022-08-07T05:45:09;3.02;;;2.83;;
44452;SDS011;30155;52.164;21.236;2022-08-07T05:50:03;7.10;;;3.17;;
44452;SDS011;30155;52.164;21.236;2022-08-07T05:54:57;4.87;;;2.58;;
44452;SDS011;30155;52.164;21.236;2022-08-07T05:59:53;4.33;;;2.67;;
44452;SDS011;30155;52.164;21.236;2022-08-07T06:05:46;2.95;;;2.30;;
44452;SDS011;30155;52.164;21.236;2022-08-07T06:16:13;3.08;;;1.55;;
44452;SDS011;30155;52.164;21.236;2022-08-07T06:27:06;2.05;;;1.30;;
44452;SDS011;30155;52.164;21.236;2022-08-07T06:32:47;1.90;;;1.27;;
44452;SDS011;30155;52.164;21.236;2022-08-07T06:43:59;1.52;;;1.10;;
44452;SDS011;30155;52.164;21.236;2022-08-07T10:11:02;1.52;;;0.75;;
44452;SDS011;30155;52.164;21.236;2022-08-07T10:27:40;1.30;;;0.67;;
44452;SDS011;30155;52.164;21.236;2022-08-07T10:55:20;1.45;;;1.35;;
44452;SDS011;30155;52.164;21.236;2022-08-07T11:00:33;1.15;;;0.90;;
44452;SDS011;30155;52.164;21.236;2022-08-07T11:33:45;0.75;;;0.75;;
44452;SDS011;30155;52.164;21.236;2022-08-07T11:45:05;1.22;;;0.90;;
44452;SDS011;30155;52.164;21.236;2022-08-07T12:42:14;0.60;;;0.60;;
44452;SDS011;30155;52.164;21.236;2022-08-07T13:50:42;1.75;;;0.72;;
44452;SDS011;30155;52.164;21.236;2022-08-07T14:12:43;3.62;;;0.85;;
44452;SDS011;30155;52.164;21.236;2022-08-07T14:23:35;2.12;;;0.90;;
44452;SDS011;30155;52.164;21.236;2022-08-07T14:29:46;0.95;;;0.80;;
44452;SDS011;30155;52.164;21.236;2022-08-07T14:41:04;2.37;;;0.98;;
44452;SDS011;30155;52.164;21.236;2022-08-07T14:45:57;1.98;;;1.00;;
44452;SDS011;30155;52.164;21.236;2022-08-07T15:06:26;0.65;;;0.65;;
44452;SDS011;30155;52.164;21.236;2022-08-07T15:11:25;1.77;;;1.00;;
44452;SDS011;30155;52.164;21.236;2022-08-07T15:16:23;1.10;;;0.95;;
44452;SDS011;30155;52.164;21.236;2022-08-07T15:21:32;1.47;;;1.15;;
44452;SDS011;30155;52.164;21.236;2022-08-07T16:32:21;1.02;;;0.93;;
44452;SDS011;30155;52.164;21.236;2022-08-07T16:50:15;1.27;;;1.00;;
44452;SDS011;30155;52.164;21.236;2022-08-07T17:06:47;1.45;;;1.20;;
44452;SDS011;30155;52.164;21.236;2022-08-07T17:12:21;3.15;;;1.20;;
44452;SDS011;30155;52.164;21.236;2022-08-07T18:38:13;5.05;;;2.00;;
44452;SDS011;30155;52.164;21.236;2022-08-07T18:43:13;6.87;;;2.62;;
44452;SDS011;30155;52.164;21.236;2022-08-07T18:48:28;3.77;;;2.02;;
44452;SDS011;30155;52.164;21.236;2022-08-07T18:53:58;3.72;;;2.17;;
44452;SDS011;30155;52.164;21.236;2022-08-07T18:59:33;5.58;;;2.45;;
44452;SDS011;30155;52.164;21.236;2022-08-07T19:10:03;11.57;;;6.45;;
44452;SDS011;30155;52.164;21.236;2022-08-07T19:20:18;13.78;;;7.85;;
44452;SDS011;30155;52.164;21.236;2022-08-07T19:25:23;13.80;;;7.45;;
44452;SDS011;30155;52.164;21.236;2022-08-07T19:30:17;12.80;;;6.25;;
44452;SDS011;30155;52.164;21.236;2022-08-07T19:35:16;9.83;;;7.05;;
44452;SDS011;30155;52.164;21.236;2022-08-07T19:40:15;16.77;;;10.20;;
44452;SDS011;30155;52.164;21.236;2022-08-07T19:45:14;11.15;;;8.08;;
44452;SDS011;30155;52.164;21.236;2022-08-07T19:50:11;7.62;;;5.25;;
44452;SDS011;30155;52.164;21.236;2022-08-07T19:55:03;6.70;;;4.42;;
44452;SDS011;30155;52.164;21.236;2022-08-07T20:00:01;5.50;;;3.73;;
44452;SDS011;30155;52.164;21.236;2022-08-07T20:04:57;5.97;;;3.80;;
44452;SDS011;30155;52.164;21.236;2022-08-07T20:09:53;6.10;;;3.13;;
44452;SDS011;30155;52.164;21.236;2022-08-07T20:14:47;5.53;;;3.00;;
44452;SDS011;30155;52.164;21.236;2022-08-07T20:19:41;5.20;;;3.00;;
44452;SDS011;30155;52.164;21.236;2022-08-07T20:24:36;8.75;;;3.75;;
44452;SDS011;30155;52.164;21.236;2022-08-07T20:29:35;5.35;;;3.98;;
44452;SDS011;30155;52.164;21.236;2022-08-07T20:34:43;6.90;;;4.42;;
44452;SDS011;30155;52.164;21.236;2022-08-07T20:39:38;5.42;;;4.17;;
44452;SDS011;30155;52.164;21.236;2022-08-07T20:44:34;3.65;;;3.35;;
44452;SDS011;30155;52.164;21.236;2022-08-07T20:54:27;4.42;;;3.70;;
44452;SDS011;30155;52.164;21.236;2022-08-07T20:59:21;4.05;;;3.75;;
44452;SDS011;30155;52.164;21.236;2022-08-07T21:04:17;4.65;;;3.08;;
44452;SDS011;30155;52.164;21.236;2022-08-07T21:09:13;3.67;;;3.30;;
44452;SDS011;30155;52.164;21.236;2022-08-07T21:14:11;4.95;;;3.58;;
44452;SDS011;30155;52.164;21.236;2022-08-07T21:19:08;2.90;;;2.70;;
44452;SDS011;30155;52.164;21.236;2022-08-07T21:24:05;4.10;;;3.67;;
44452;SDS011;30155;52.164;21.236;2022-08-07T21:29:17;6.62;;;4.37;;
44452;SDS011;30155;52.164;21.236;2022-08-07T21:34:27;7.47;;;4.15;;
44452;SDS011;30155;52.164;21.236;2022-08-07T21:39:48;5.22;;;3.30;;
44452;SDS011;30155;52.164;21.236;2022-08-07T21:44:54;6.50;;;3.00;;
44452;SDS011;30155;52.164;21.236;2022-08-07T21:55:01;5.65;;;3.17;;
44452;SDS011;30155;52.164;21.236;2022-08-07T22:00:13;5.12;;;3.52;;
44452;SDS011;30155;52.164;21.236;2022-08-07T22:05:10;4.60;;;2.77;;
44452;SDS011;30155;52.164;21.236;2022-08-07T22:10:10;3.85;;;2.10;;
44452;SDS011;30155;52.164;21.236;2022-08-07T22:15:21;2.17;;;1.98;;
44452;SDS011;30155;52.164;21.236;2022-08-07T22:20:23;3.10;;;2.15;;
44452;SDS011;30155;52.164;21.236;2022-08-07T22:25:54;2.40;;;2.20;;
44452;SDS011;30155;52.164;21.236;2022-08-07T22:35:59;2.77;;;2.42;;
44452;SDS011;30155;52.164;21.236;2022-08-07T23:18:19;3.95;;;2.90;;
44452;SDS011;30155;52.164;21.236;2022-08-07T23:50:32;3.85;;;2.87;;
